Terminal Aerodrome Forecast
Issued by NWS

Home | Current Version | Previous Version | Text Only | Print | Product List | Glossary On
Versions: 1 2 3 4 5 6 7 8 9 10 11 12 13
221
FTUS43 KFGF 301131
TAFDVL
TAF
KDVL 301131Z 3012/0112 06009KT P6SM SKC
     FM301600 06014KT P6SM FEW250
     FM010200 05007KT P6SM SKC
     FM010800 02006KT P6SM SKC=

USA.gov is the U.S. government's official web portal to all federal, state and local government web resources and services.